Time;durP1;ratioP1;P1;durP2;ratioP2;P2;SDS_P1;SDS_P2;PMS_P1;PMS_P2;Temp;Humidity;BMP_temperature;BMP_pressure;BME280_temperature;BME280_humidity;BME280_pressure;Samples;Min_cycle;Max_cycle;Signal;HPM_P1;HPM_P2
2021/09/19 00:01:57;;;;;;;5.20;3.65;;;;;;;6.58;86.86;90519.56;4922143;29;20034;-87
2021/09/19 00:04:23;;;;;;;4.43;3.30;;;;;;;6.64;86.41;90513.91;4922384;28;20391;-87
2021/09/19 00:06:48;;;;;;;4.97;3.08;;;;;;;6.56;85.90;90514.69;4940346;28;20391;-87
2021/09/19 00:09:14;;;;;;;6.13;3.50;;;;;;;6.45;85.33;90505.75;4940392;28;20380;-88
2021/09/19 00:11:40;;;;;;;7.05;3.45;;;;;;;6.42;85.51;90503.78;4940398;28;20023;-88
2021/09/19 00:14:06;;;;;;;5.05;3.15;;;;;;;6.40;85.66;90508.53;4940575;28;20031;-87
2021/09/19 00:16:31;;;;;;;5.55;2.80;;;;;;;6.24;85.77;90503.09;4921079;29;20030;-88
2021/09/19 00:18:56;;;;;;;4.53;3.10;;;;;;;6.31;85.49;90507.81;4905472;29;20023;-87
2021/09/19 00:21:22;;;;;;;5.97;3.17;;;;;;;6.22;85.48;90511.19;4937003;29;20035;-88
2021/09/19 00:23:47;;;;;;;4.10;2.90;;;;;;;6.19;85.56;90500.72;4921388;29;20046;-88
2021/09/19 00:26:13;;;;;;;4.95;3.22;;;;;;;6.08;86.05;90505.47;4921368;28;20383;-87
2021/09/19 00:28:38;;;;;;;4.63;3.08;;;;;;;6.13;85.63;90496.75;4939735;28;20046;-87
2021/09/19 00:31:04;;;;;;;4.63;3.20;;;;;;;5.99;85.45;90491.78;4956508;28;20045;-88
2021/09/19 00:33:29;;;;;;;4.30;3.17;;;;;;;5.96;85.53;90497.56;4940344;28;20081;-87
2021/09/19 00:35:54;;;;;;;5.50;3.33;;;;;;;5.88;86.61;90490.59;4946564;29;20483;-87
2021/09/19 00:38:20;;;;;;;4.07;3.03;;;;;;;5.90;86.00;90489.22;4947401;29;20031;-87
2021/09/19 00:40:45;;;;;;;4.28;3.10;;;;;;;5.98;86.20;90495.44;4923593;28;20074;-88
2021/09/19 00:43:11;;;;;;;4.75;3.17;;;;;;;5.91;86.40;90489.97;4939654;28;20027;-87
2021/09/19 00:45:36;;;;;;;7.20;3.33;;;;;;;5.90;85.82;90488.44;4940180;28;20022;-88
2021/09/19 00:48:02;;;;;;;6.90;3.33;;;;;;;5.86;87.24;90495.28;4924088;28;20050;-88
2021/09/19 00:50:27;;;;;;;5.07;2.90;;;;;;;5.91;87.17;90492.56;4939931;28;20487;-87
2021/09/19 00:52:53;;;;;;;4.82;3.25;;;;;;;5.92;87.28;90496.66;4936232;28;20445;-88
2021/09/19 00:55:19;;;;;;;3.13;2.60;;;;;;;5.93;87.05;90487.84;4920720;29;20028;-87
2021/09/19 00:57:50;;;;;;;5.90;3.33;;;;;;;6.05;87.21;90482.03;4920812;29;20035;-87
2021/09/19 01:00:26;;;;;;;3.85;2.70;;;;;;;5.96;86.55;90484.66;4921273;29;20023;-88
2021/09/19 01:02:53;;;;;;;3.58;3.05;;;;;;;5.90;86.24;90478.88;4937515;28;20063;-88
2021/09/19 01:05:18;;;;;;;3.95;3.00;;;;;;;6.01;85.84;90484.50;4948018;28;20065;-88
2021/09/19 01:07:44;;;;;;;3.40;2.78;;;;;;;5.95;86.27;90483.13;4959542;28;20185;-87
2021/09/19 01:10:11;;;;;;;5.18;3.33;;;;;;;6.00;88.21;90477.78;4943742;28;20034;-87
2021/09/19 01:12:38;;;;;;;5.45;3.92;;;;;;;6.02;89.73;90486.00;4959979;28;20053;-87
2021/09/19 01:15:04;;;;;;;5.50;3.53;;;;;;;6.04;88.51;90477.91;4959631;28;20081;-88
2021/09/19 01:17:29;;;;;;;4.35;3.47;;;;;;;6.05;88.21;90475.03;4943548;28;20034;-87
2021/09/19 01:19:57;;;;;;;4.63;3.58;;;;;;;5.97;87.78;90474.00;4943656;28;20026;-88
2021/09/19 01:22:30;;;;;;;5.03;3.65;;;;;;;5.92;88.96;90461.22;4966977;28;20031;-87
2021/09/19 01:24:55;;;;;;;7.13;4.07;;;;;;;6.13;88.40;90465.72;4969766;28;20380;-92
2021/09/19 01:27:21;;;;;;;6.25;3.45;;;;;;;6.05;87.62;90459.50;4986478;28;20085;-87
2021/09/19 01:29:46;;;;;;;4.15;3.28;;;;;;;5.94;87.44;90460.94;4943436;28;20062;-87
2021/09/19 01:32:16;;;;;;;3.83;3.05;;;;;;;5.87;87.83;90456.22;4959298;28;20042;-87
2021/09/19 01:34:42;;;;;;;7.68;3.40;;;;;;;5.93;86.90;90452.38;4943248;28;20023;-87
2021/09/19 01:37:07;;;;;;;5.30;3.10;;;;;;;5.74;87.68;90450.16;4974816;28;20034;-87
2021/09/19 01:39:33;;;;;;;4.80;3.13;;;;;;;5.73;87.34;90453.81;4958851;28;20038;-89
2021/09/19 01:41:59;;;;;;;4.82;3.35;;;;;;;5.81;87.08;90448.94;4958912;28;20085;-88
2021/09/19 01:44:24;;;;;;;5.68;3.03;;;;;;;5.79;87.23;90444.03;4958592;28;20027;-88
2021/09/19 01:46:50;;;;;;;6.30;3.40;;;;;;;5.67;87.37;90438.78;4926661;28;20042;-88
2021/09/19 01:49:15;;;;;;;5.63;3.20;;;;;;;5.86;87.43;90446.91;4926885;28;20023;-88
2021/09/19 01:51:40;;;;;;;5.00;3.25;;;;;;;5.65;87.95;90433.91;4942931;28;20030;-88
2021/09/19 01:54:06;;;;;;;6.05;3.40;;;;;;;5.68;88.28;90430.69;4940865;28;20038;-88
2021/09/19 01:56:31;;;;;;;4.75;3.47;;;;;;;5.73;87.46;90427.22;4959133;28;20034;-88
2021/09/19 01:58:57;;;;;;;4.35;3.25;;;;;;;5.72;88.16;90421.28;4958995;28;20027;-88
2021/09/19 02:01:22;;;;;;;5.00;3.25;;;;;;;6.01;87.32;90425.00;4942611;28;20030;-88
2021/09/19 02:03:49;;;;;;;4.65;3.25;;;;;;;5.82;87.82;90425.34;4942587;28;20463;-88
2021/09/19 02:06:14;;;;;;;5.57;3.60;;;;;;;5.81;89.64;90418.66;4957901;28;20380;-89
2021/09/19 02:08:40;;;;;;;7.57;3.67;;;;;;;5.85;89.92;90416.97;4942149;28;20062;-88
2021/09/19 02:11:11;;;;;;;4.97;3.40;;;;;;;5.84;88.79;90420.63;4942713;28;20495;-89
2021/09/19 02:13:37;;;;;;;4.20;3.22;;;;;;;5.78;87.54;90423.69;4925889;28;20114;-88
2021/09/19 02:16:03;;;;;;;7.85;3.45;;;;;;;5.77;86.90;90409.25;4957940;28;20045;-88
2021/09/19 02:18:29;;;;;;;5.63;3.80;;;;;;;5.74;87.97;90402.84;4958374;28;20066;-88
2021/09/19 02:20:54;;;;;;;4.63;3.42;;;;;;;5.70;87.47;90402.72;4958258;28;20056;-88
2021/09/19 02:23:20;;;;;;;4.88;3.22;;;;;;;5.78;87.27;90403.00;4942040;28;20023;-88
2021/09/19 02:25:45;;;;;;;6.32;3.08;;;;;;;5.73;86.98;90396.94;4974138;28;20034;-88
2021/09/19 02:28:12;;;;;;;5.95;3.50;;;;;;;5.60;87.29;90394.53;4941946;28;20022;-88
2021/09/19 02:30:37;;;;;;;5.40;3.83;;;;;;;5.64;88.79;90393.59;4939307;29;20027;-89
2021/09/19 02:33:03;;;;;;;5.30;3.65;;;;;;;5.73;87.42;90396.19;4938792;28;20031;-88
2021/09/19 02:35:28;;;;;;;3.95;3.30;;;;;;;5.77;86.32;90401.47;4953504;28;20034;-89
2021/09/19 02:37:54;;;;;;;5.72;3.67;;;;;;;5.47;86.93;90393.66;4956772;28;20034;-87
2021/09/19 02:40:19;;;;;;;5.32;3.28;;;;;;;5.51;87.91;90395.34;4957346;28;20475;-89
2021/09/19 02:42:46;;;;;;;6.25;3.83;;;;;;;5.40;87.87;90407.06;4957772;28;20030;-88
2021/09/19 02:45:11;;;;;;;5.10;3.42;;;;;;;5.47;87.87;90397.00;5014029;23;20553;-91
2021/09/19 02:47:37;;;;;;;4.80;3.20;;;;;;;5.46;87.49;90397.31;4940954;28;20027;-91
2021/09/19 02:50:03;;;;;;;5.97;3.35;;;;;;;5.40;87.77;90393.38;4970116;28;20128;-91
2021/09/19 02:52:29;;;;;;;4.43;3.20;;;;;;;5.38;87.69;90396.28;4938071;29;20576;-91
2021/09/19 02:54:54;;;;;;;6.35;3.95;;;;;;;5.36;87.43;90387.31;4954958;29;20050;-91
2021/09/19 02:57:20;;;;;;;4.28;3.30;;;;;;;5.41;87.41;90397.50;4921903;29;20027;-91
2021/09/19 02:59:45;;;;;;;5.63;3.60;;;;;;;5.60;86.92;90387.53;4937770;29;20023;-91
2021/09/19 03:02:11;;;;;;;4.65;3.20;;;;;;;5.42;87.17;90394.59;4960235;28;20403;-91
2021/09/19 03:04:36;;;;;;;4.03;2.78;;;;;;;5.34;87.74;90399.81;4976121;28;20041;-91
2021/09/19 03:07:02;;;;;;;3.92;2.92;;;;;;;5.42;87.54;90404.19;4973247;28;20034;-90
2021/09/19 03:09:27;;;;;;;3.75;3.08;;;;;;;5.47;87.05;90401.41;4956820;28;20549;-91
2021/09/19 03:11:52;;;;;;;8.98;3.17;;;;;;;5.50;87.17;90404.16;4974214;28;20037;-91
2021/09/19 03:14:18;;;;;;;5.13;3.72;;;;;;;5.50;86.77;90393.06;4973953;28;20046;-91
2021/09/19 03:16:43;;;;;;;5.35;3.40;;;;;;;5.37;87.92;90397.38;4973895;28;20436;-92
2021/09/19 03:19:09;;;;;;;4.93;3.38;;;;;;;5.59;87.59;90395.63;4959217;28;20026;-91
2021/09/19 03:21:34;;;;;;;6.85;3.67;;;;;;;5.57;87.88;90401.09;4988412;28;20034;-91
2021/09/19 03:24:00;;;;;;;5.30;3.95;;;;;;;5.65;88.57;90405.47;4959942;28;20466;-91
2021/09/19 03:26:25;;;;;;;6.35;4.00;;;;;;;5.67;88.97;90407.75;4965012;28;20026;-91
2021/09/19 03:28:51;;;;;;;6.70;4.13;;;;;;;5.61;89.20;90406.41;4987487;28;20030;-91
2021/09/19 03:31:16;;;;;;;5.07;3.60;;;;;;;5.60;88.91;90408.22;4967808;28;20517;-91
2021/09/19 03:33:41;;;;;;;7.43;4.65;;;;;;;5.62;89.70;90411.28;4975517;28;20391;-91
2021/09/19 03:36:07;;;;;;;5.82;4.15;;;;;;;5.54;89.18;90408.69;4981674;28;20034;-91
2021/09/19 03:38:32;;;;;;;9.07;4.78;;;;;;;5.94;89.84;90407.38;4956261;28;20030;-91
2021/09/19 03:40:58;;;;;;;7.25;4.70;;;;;;;6.01;89.83;90404.31;4956537;28;20037;-91
2021/09/19 03:43:23;;;;;;;9.07;6.35;;;;;;;6.01;91.07;90413.88;4972467;28;20023;-91
2021/09/19 03:45:49;;;;;;;10.25;6.53;;;;;;;5.84;92.51;90404.34;4956309;28;20030;-92
2021/09/19 03:48:15;;;;;;;8.00;5.65;;;;;;;6.04;92.45;90408.06;4956164;28;20027;-91
2021/09/19 03:50:41;;;;;;;7.68;5.35;;;;;;;6.23;90.27;90419.53;4971204;28;20034;-91
2021/09/19 03:53:06;;;;;;;6.63;4.82;;;;;;;6.10;90.76;90419.75;4967034;28;20109;-92
2021/09/19 03:55:32;;;;;;;8.13;5.13;;;;;;;6.32;90.67;90426.50;4975409;28;20030;-91
2021/09/19 03:57:58;;;;;;;8.23;5.05;;;;;;;6.25;90.31;90421.06;4975385;28;20516;-91
2021/09/19 04:00:24;;;;;;;8.50;5.32;;;;;;;6.30;90.89;90419.06;4975285;28;20033;-91
2021/09/19 04:02:49;;;;;;;7.85;4.78;;;;;;;6.22;90.50;90402.50;4975253;28;20019;-91
2021/09/19 04:05:15;;;;;;;9.35;4.68;;;;;;;6.19;89.60;90413.47;4992530;28;20479;-91
2021/09/19 04:07:40;;;;;;;6.95;4.60;;;;;;;6.26;89.28;90409.66;4955759;28;20023;-91
2021/09/19 04:10:06;;;;;;;4.63;3.78;;;;;;;6.19;89.09;90413.47;4920880;29;20030;-91
2021/09/19 04:12:32;;;;;;;5.20;3.85;;;;;;;6.06;89.19;90411.13;4936789;28;20065;-88
2021/09/19 04:14:57;;;;;;;7.97;5.60;;;;;;;6.00;88.72;90410.53;4975128;28;20030;-88
2021/09/19 04:17:23;;;;;;;7.28;5.15;;;;;;;5.97;88.65;90405.97;4989299;28;20030;-89
2021/09/19 04:19:49;;;;;;;8.18;5.03;;;;;;;5.92;88.78;90395.78;4991339;28;20049;-89
2021/09/19 04:22:14;;;;;;;6.40;4.47;;;;;;;6.09;88.11;90403.50;4974685;28;20041;-89
2021/09/19 04:24:39;;;;;;;6.57;4.22;;;;;;;6.08;88.42;90407.16;4974993;28;20109;-91
2021/09/19 04:27:06;;;;;;;4.78;3.72;;;;;;;6.04;88.40;90413.25;4961831;28;20062;-91
2021/09/19 04:29:32;;;;;;;5.07;4.07;;;;;;;5.93;89.19;90405.09;4971592;28;20031;-89
2021/09/19 04:31:58;;;;;;;8.55;4.10;;;;;;;5.96;88.42;90409.63;4955523;28;20517;-91
2021/09/19 04:34:23;;;;;;;7.75;3.97;;;;;;;5.86;89.28;90399.59;4971545;28;20046;-89
2021/09/19 04:36:48;;;;;;;5.00;3.67;;;;;;;5.92;89.09;90411.31;4970464;28;20034;-91
2021/09/19 04:39:14;;;;;;;5.95;4.00;;;;;;;5.91;88.85;90407.97;4955417;28;20025;-89
2021/09/19 04:41:39;;;;;;;6.20;4.13;;;;;;;5.90;89.18;90405.66;4939656;28;20419;-89
2021/09/19 04:44:05;;;;;;;6.40;4.82;;;;;;;5.96;89.83;90419.97;4964413;28;20042;-88
2021/09/19 04:46:30;;;;;;;5.70;4.30;;;;;;;5.98;89.44;90412.69;4952519;28;20034;-89
2021/09/19 04:48:56;;;;;;;5.95;4.45;;;;;;;6.03;90.19;90425.44;4990048;28;20033;-92
2021/09/19 04:51:22;;;;;;;6.65;3.97;;;;;;;6.08;90.16;90420.09;4975822;28;20039;-92
2021/09/19 04:53:47;;;;;;;8.23;4.53;;;;;;;6.19;90.39;90418.66;4939308;28;20022;-92
2021/09/19 04:56:13;;;;;;;6.60;4.22;;;;;;;6.21;89.57;90402.81;4939286;28;20642;-89
2021/09/19 04:58:39;;;;;;;5.97;4.68;;;;;;;6.33;89.67;90399.56;4972272;28;20030;-91
2021/09/19 05:01:04;;;;;;;6.78;4.80;;;;;;;6.35;89.39;90387.06;4968548;28;20114;-91
2021/09/19 05:03:30;;;;;;;10.07;4.93;;;;;;;6.25;89.75;90392.59;4974436;28;20030;-91
2021/09/19 05:05:55;;;;;;;9.52;4.80;;;;;;;6.36;89.42;90380.78;4990639;28;20037;-92
2021/09/19 05:08:21;;;;;;;6.00;4.50;;;;;;;6.38;88.23;90384.59;4972829;28;20033;-91
2021/09/19 05:10:47;;;;;;;5.90;3.83;;;;;;;6.20;88.61;90388.38;4955024;28;20030;-91
2021/09/19 05:13:13;;;;;;;8.98;5.25;;;;;;;6.11;89.38;90393.59;4955058;28;20057;-91
2021/09/19 05:15:38;;;;;;;7.18;4.72;;;;;;;6.25;88.83;90408.13;4952100;28;20039;-91
2021/09/19 05:18:04;;;;;;;7.90;4.88;;;;;;;6.32;89.93;90416.16;4952757;28;20069;-90
2021/09/19 05:20:29;;;;;;;6.72;4.30;;;;;;;6.21;89.17;90419.09;4991642;28;20057;-91
2021/09/19 05:22:55;;;;;;;8.55;5.20;;;;;;;6.21;89.00;90420.91;4953022;28;20031;-91
2021/09/19 05:25:20;;;;;;;8.63;5.18;;;;;;;6.17;89.87;90425.97;4935968;29;20031;-90
2021/09/19 05:27:46;;;;;;;9.23;4.97;;;;;;;6.26;90.37;90412.25;4937382;28;20031;-91
2021/09/19 05:30:11;;;;;;;7.97;5.63;;;;;;;6.29;91.07;90411.59;4954847;28;20546;-91
2021/09/19 05:32:37;;;;;;;11.55;6.32;;;;;;;6.36;91.98;90412.63;4972139;28;20030;-91
2021/09/19 05:35:04;;;;;;;7.85;5.95;;;;;;;6.41;91.89;90412.44;4972552;28;20073;-91
2021/09/19 05:37:29;;;;;;;7.82;5.57;;;;;;;6.59;90.81;90400.13;4939241;28;20035;-91
2021/09/19 05:39:55;;;;;;;9.73;5.75;;;;;;;6.61;90.64;90392.06;4938987;28;20023;-91
2021/09/19 05:42:20;;;;;;;9.30;6.68;;;;;;;6.62;90.73;90383.22;4954905;28;20026;-91
2021/09/19 05:44:46;;;;;;;7.75;5.35;;;;;;;6.59;90.25;90394.97;4973714;28;20513;-91
2021/09/19 05:47:11;;;;;;;10.48;4.95;;;;;;;6.90;88.01;90399.00;4973573;28;20027;-90
2021/09/19 05:49:37;;;;;;;6.90;4.82;;;;;;;6.92;87.82;90413.13;4976893;28;20033;-91
2021/09/19 05:52:02;;;;;;;8.52;5.75;;;;;;;6.83;88.65;90419.47;4955163;28;20070;-91
2021/09/19 05:54:28;;;;;;;9.70;5.85;;;;;;;6.86;89.67;90429.22;4955137;28;20391;-91
2021/09/19 05:56:53;;;;;;;8.80;5.40;;;;;;;6.93;89.68;90424.28;4938894;29;20484;-91
2021/09/19 05:59:19;;;;;;;7.78;5.40;;;;;;;6.89;89.67;90431.94;4923196;29;20034;-91
2021/09/19 06:01:44;;;;;;;7.00;4.97;;;;;;;6.92;89.74;90430.50;4938957;29;20031;-91
2021/09/19 06:04:09;;;;;;;9.23;5.88;;;;;;;7.02;90.35;90437.91;4940026;28;20526;-91
2021/09/19 06:06:35;;;;;;;10.63;6.85;;;;;;;7.21;89.71;90447.03;4931653;28;20399;-90
2021/09/19 06:09:00;;;;;;;10.10;6.45;;;;;;;7.31;90.43;90460.38;4957914;28;20023;-91
2021/09/19 06:11:26;;;;;;;11.35;6.72;;;;;;;7.42;91.04;90473.72;4976807;28;20376;-91
2021/09/19 06:13:51;;;;;;;10.43;7.00;;;;;;;7.56;91.25;90471.63;4977022;28;20054;-91
2021/09/19 06:16:17;;;;;;;9.75;6.60;;;;;;;7.55;91.13;90472.66;4977258;28;20446;-91
2021/09/19 06:18:42;;;;;;;11.60;7.07;;;;;;;7.77;91.13;90455.22;4960057;28;20031;-91
2021/09/19 06:21:08;;;;;;;10.95;6.72;;;;;;;7.97;91.15;90462.19;4922765;29;20023;-91
2021/09/19 06:23:33;;;;;;;10.20;6.93;;;;;;;8.29;89.66;90457.22;4954585;28;20031;-90
2021/09/19 06:25:59;;;;;;;11.02;6.80;;;;;;;8.29;89.34;90454.63;4939151;29;20131;-91
2021/09/19 06:28:24;;;;;;;9.35;6.10;;;;;;;8.26;90.09;90455.28;4970262;28;20035;-91
2021/09/19 06:30:50;;;;;;;9.77;6.72;;;;;;;8.38;89.83;90466.47;4970627;28;20109;-91
2021/09/19 06:33:15;;;;;;;7.57;5.50;;;;;;;8.43;89.67;90467.31;4950938;28;20053;-91
2021/09/19 06:35:41;;;;;;;7.40;5.40;;;;;;;8.66;88.81;90462.44;4994241;28;20053;-91
2021/09/19 06:38:07;;;;;;;11.85;5.93;;;;;;;8.67;88.82;90458.78;4976234;28;20041;-91
2021/09/19 06:40:33;;;;;;;9.98;6.50;;;;;;;8.73;90.23;90452.28;4963136;28;20031;-90
2021/09/19 06:42:58;;;;;;;9.30;6.22;;;;;;;8.89;90.11;90460.91;4944884;28;20553;-91
2021/09/19 06:45:23;;;;;;;10.15;7.03;;;;;;;9.03;90.34;90461.28;4960601;28;20038;-91
2021/09/19 06:47:49;;;;;;;9.55;6.55;;;;;;;9.20;90.36;90455.09;4976251;28;20061;-91
2021/09/19 06:50:14;;;;;;;9.98;6.93;;;;;;;9.36;89.20;90462.16;4976506;28;20442;-91
2021/09/19 06:52:40;;;;;;;9.63;6.72;;;;;;;9.62;88.72;90464.38;4944469;28;20030;-91
2021/09/19 06:55:06;;;;;;;13.10;7.80;;;;;;;9.64;89.35;90462.91;4960327;28;20475;-90
2021/09/19 06:57:31;;;;;;;11.30;7.80;;;;;;;9.84;89.45;90470.88;4993872;28;20022;-89
2021/09/19 06:59:57;;;;;;;12.48;7.80;;;;;;;9.89;88.52;90471.38;4983407;28;20034;-89
2021/09/19 07:02:22;;;;;;;11.43;7.57;;;;;;;9.93;89.76;90469.63;4958512;28;20035;-91
2021/09/19 07:04:48;;;;;;;11.00;7.57;;;;;;;10.05;89.33;90460.97;4939053;29;20039;-90
2021/09/19 07:07:14;;;;;;;10.50;7.43;;;;;;;10.11;89.33;90470.06;4949138;28;20031;-89
2021/09/19 07:09:40;;;;;;;10.18;6.80;;;;;;;10.15;90.12;90464.94;4973958;28;20038;-88
2021/09/19 07:12:06;;;;;;;12.57;7.50;;;;;;;10.26;88.67;90463.38;4960220;28;20030;-88
2021/09/19 07:14:31;;;;;;;12.13;7.32;;;;;;;10.32;86.99;90469.84;4993961;28;20386;-88
2021/09/19 07:16:57;;;;;;;8.82;6.35;;;;;;;10.38;85.31;90468.47;4975913;28;20030;-89
2021/09/19 07:19:23;;;;;;;8.93;5.45;;;;;;;10.44;85.58;90471.59;4944497;28;20138;-89
2021/09/19 07:21:48;;;;;;;11.88;7.03;;;;;;;10.58;85.87;90471.19;4976645;28;20085;-88
2021/09/19 07:24:13;;;;;;;9.63;6.35;;;;;;;10.66;87.20;90473.59;4975625;28;20027;-89
2021/09/19 07:26:39;;;;;;;9.20;6.25;;;;;;;10.79;87.54;90460.47;4972939;28;20030;-89
2021/09/19 07:29:05;;;;;;;9.68;6.10;;;;;;;10.88;85.75;90461.78;4940841;28;20026;-89
2021/09/19 07:31:31;;;;;;;9.93;6.30;;;;;;;10.96;81.24;90458.25;4929773;29;20377;-87
2021/09/19 07:33:57;;;;;;;10.77;5.80;;;;;;;11.15;82.16;90461.97;4921949;29;20027;-89
2021/09/19 07:36:25;;;;;;;9.95;6.55;;;;;;;11.29;81.36;90464.88;4908328;29;20562;-89
2021/09/19 07:38:50;;;;;;;11.25;7.05;;;;;;;11.45;74.84;90457.75;4938121;28;20110;-89
2021/09/19 07:41:16;;;;;;;9.70;5.55;;;;;;;11.52;78.36;90456.34;4972082;28;20029;-89
2021/09/19 07:43:42;;;;;;;8.23;5.70;;;;;;;11.70;81.52;90462.69;4943633;28;20551;-89
2021/09/19 07:46:07;;;;;;;7.93;5.63;;;;;;;11.77;83.29;90454.97;4975609;28;20022;-89
2021/09/19 07:48:33;;;;;;;9.10;5.55;;;;;;;11.83;80.99;90458.03;4993266;28;20457;-88
2021/09/19 07:50:59;;;;;;;9.48;4.97;;;;;;;11.87;81.37;90464.88;4943651;28;20109;-89
2021/09/19 07:53:24;;;;;;;8.45;5.97;;;;;;;11.98;81.36;90466.91;4943439;28;20482;-90
2021/09/19 07:55:50;;;;;;;6.60;4.90;;;;;;;12.16;81.67;90454.94;4929659;29;20063;-89
2021/09/19 07:58:16;;;;;;;8.82;5.53;;;;;;;12.22;79.09;90455.38;4944051;28;20571;-89
2021/09/19 08:00:41;;;;;;;8.93;5.47;;;;;;;12.31;78.22;90451.44;4959110;28;20541;-89
2021/09/19 08:03:07;;;;;;;8.98;6.15;;;;;;;12.43;72.95;90459.09;4943688;28;20026;-89
2021/09/19 08:05:32;;;;;;;9.75;5.38;;;;;;;12.54;72.56;90453.28;4943195;28;20018;-89
2021/09/19 08:07:58;;;;;;;8.05;5.47;;;;;;;12.60;70.37;90455.25;4921968;29;20035;-89
2021/09/19 08:10:23;;;;;;;8.10;5.45;;;;;;;12.81;70.07;90456.66;4949630;28;20038;-89
2021/09/19 08:12:49;;;;;;;9.95;5.80;;;;;;;12.69;71.21;90449.78;4959073;28;20506;-89
2021/09/19 08:15:15;;;;;;;8.68;5.57;;;;;;;12.70;71.08;90461.75;4958549;28;20030;-88
2021/09/19 08:17:41;;;;;;;9.27;5.28;;;;;;;12.72;70.71;90470.00;4956397;28;20027;-89
2021/09/19 08:20:08;;;;;;;7.93;5.18;;;;;;;12.69;73.49;90483.78;4936821;29;20542;-89
2021/09/19 08:22:33;;;;;;;8.07;5.32;;;;;;;12.63;73.23;90479.94;4921022;29;20020;-89
2021/09/19 08:25:00;;;;;;;6.15;4.55;;;;;;;12.69;72.42;90475.94;4920671;29;20496;-89
2021/09/19 08:27:26;;;;;;;8.43;5.55;;;;;;;12.56;74.63;90482.44;4941433;29;20034;-89
2021/09/19 08:29:52;;;;;;;8.70;5.13;;;;;;;12.58;74.90;90486.22;4928526;29;20051;-89
2021/09/19 08:32:17;;;;;;;9.18;5.85;;;;;;;12.59;74.83;90494.81;4952797;28;20035;-89
2021/09/19 08:34:43;;;;;;;8.20;5.40;;;;;;;12.53;73.44;90489.13;4939919;29;20031;-89
2021/09/19 08:37:08;;;;;;;6.57;5.05;;;;;;;12.58;73.81;90491.44;4936350;29;20660;-89
2021/09/19 08:39:34;;;;;;;8.77;5.03;;;;;;;12.61;73.97;90500.44;4937170;28;20023;-90
2021/09/19 08:41:59;;;;;;;7.20;4.70;;;;;;;12.56;73.86;90492.91;4952252;28;20035;-90
2021/09/19 08:44:24;;;;;;;5.80;4.00;;;;;;;12.50;73.70;90504.75;4992025;23;20023;-85
2021/09/19 08:46:50;;;;;;;4.70;3.05;;;;;;;12.22;73.91;90502.41;5047453;28;20033;-86
2021/09/19 08:49:18;;;;;;;2.60;1.80;;;;;;;12.16;73.94;90512.41;5004083;28;20030;-88
2021/09/19 08:51:43;;;;;;;1.67;1.20;;;;;;;12.17;73.75;90509.44;4991394;28;20508;-86
2021/09/19 08:54:09;;;;;;;1.70;1.00;;;;;;;12.11;74.08;90510.06;5017014;28;20029;-85
2021/09/19 08:56:34;;;;;;;2.10;1.30;;;;;;;11.91;74.86;90507.47;5004216;28;20024;-87
2021/09/19 08:59:00;;;;;;;2.67;1.58;;;;;;;12.07;74.51;90511.84;5001662;28;20029;-88
2021/09/19 09:01:26;;;;;;;2.50;1.45;;;;;;;12.33;74.53;90519.78;5007194;28;20061;-87
2021/09/19 09:03:51;;;;;;;3.40;1.60;;;;;;;12.33;75.20;90522.41;4995610;28;20029;-86
2021/09/19 09:06:18;;;;;;;2.40;1.40;;;;;;;12.18;75.91;90515.41;4984246;28;20028;-86
2021/09/19 09:08:47;;;;;;;1.50;0.90;;;;;;;12.11;76.02;90515.28;4984011;28;20031;-86
2021/09/19 09:11:12;;;;;;;1.60;0.60;;;;;;;12.01;76.59;90511.38;4982339;28;20032;-86
2021/09/19 09:13:39;;;;;;;2.30;0.90;;;;;;;11.82;76.81;90519.94;4978859;28;20022;-87
2021/09/19 09:16:17;;;;;;;1.40;0.70;;;;;;;11.62;78.05;90521.78;4982664;28;20017;-86
2021/09/19 09:18:48;;;;;;;1.30;0.80;;;;;;;11.74;77.93;90523.53;4998850;28;20026;-86
2021/09/19 09:21:18;;;;;;;0.82;0.43;;;;;;;11.57;79.18;90518.72;4999368;28;20060;-85
2021/09/19 09:23:44;;;;;;;0.95;0.70;;;;;;;11.45;80.23;90517.75;5018475;28;20029;-85
2021/09/19 09:26:31;;;;;;;0.93;0.50;;;;;;;11.49;80.75;90520.44;4987400;28;20026;-87
2021/09/19 09:28:59;;;;;;;0.85;0.60;;;;;;;11.66;79.68;90521.88;4995036;28;20029;-87
2021/09/19 09:31:32;;;;;;;0.85;0.52;;;;;;;11.62;79.84;90527.00;5020461;28;20072;-86
2021/09/19 09:34:13;;;;;;;1.45;0.50;;;;;;;11.49;79.98;90521.19;5022817;28;20028;-85
2021/09/19 09:36:50;;;;;;;0.93;0.45;;;;;;;11.53;79.34;90517.91;4971383;28;20104;-86
2021/09/19 09:39:31;;;;;;;0.30;0.20;;;;;;;11.42;79.71;90508.00;5020710;28;20033;-85
2021/09/19 09:41:59;;;;;;;0.47;0.20;;;;;;;11.38;78.52;90511.63;5022739;28;20047;-86
2021/09/19 09:44:26;;;;;;;0.70;0.20;;;;;;;11.33;78.99;90504.06;5022133;28;20025;-86
2021/09/19 09:46:51;;;;;;;0.40;0.10;;;;;;;11.29;77.87;90511.81;4988118;28;20035;-86
2021/09/19 09:49:39;;;;;;;0.73;0.30;;;;;;;11.30;78.38;90513.31;4988002;28;20021;-86
2021/09/19 09:52:28;;;;;;;0.30;0.20;;;;;;;11.27;77.70;90516.59;5022629;28;20029;-86
2021/09/19 09:55:01;;;;;;;0.47;0.20;;;;;;;11.48;77.70;90509.25;5005207;28;20032;-86
2021/09/19 09:57:35;;;;;;;1.08;0.73;;;;;;;11.48;77.57;90514.47;5003727;28;20497;-86
2021/09/19 10:00:13;;;;;;;;;;;;;;;11.59;76.55;90506.84;5020348;28;20044;-87
2021/09/19 10:02:43;;;;;;;0.75;0.20;;;;;;;11.47;75.93;90504.34;5019717;28;19909;-86
2021/09/19 10:05:10;;;;;;;0.32;0.13;;;;;;;11.35;75.60;90507.84;5003955;28;20092;-85
2021/09/19 10:07:35;;;;;;;0.30;0.20;;;;;;;11.43;76.00;90504.28;4984903;28;20026;-85
2021/09/19 10:10:05;;;;;;;0.28;0.20;;;;;;;11.44;76.13;90502.41;4984654;28;20351;-86
2021/09/19 10:12:30;;;;;;;0.95;0.28;;;;;;;11.54;75.58;90506.34;4993936;28;20163;-87
2021/09/19 10:14:56;;;;;;;0.10;0.10;;;;;;;11.44;75.65;90499.81;5004868;28;20441;-85
2021/09/19 10:17:22;;;;;;;0.10;0.10;;;;;;;11.56;74.74;90496.34;5005310;28;20033;-86
2021/09/19 10:19:48;;;;;;;0.50;0.15;;;;;;;11.54;75.80;90498.53;4989409;28;20482;-87
2021/09/19 10:22:25;;;;;;;0.98;0.20;;;;;;;11.62;75.41;90500.91;5005607;28;20022;-85
2021/09/19 10:24:51;;;;;;;1.15;0.13;;;;;;;11.55;75.38;90500.03;5021390;28;20030;-87
2021/09/19 10:27:24;;;;;;;0.55;0.20;;;;;;;11.62;75.52;90489.72;5005123;28;20078;-86
2021/09/19 10:30:01;;;;;;;1.25;0.20;;;;;;;11.74;76.31;90489.59;5002934;28;20037;-85
2021/09/19 10:32:43;;;;;;;1.48;0.30;;;;;;;11.69;75.00;90495.84;4987137;28;20018;-87
2021/09/19 10:35:18;;;;;;;0.35;0.20;;;;;;;11.74;75.49;90502.66;4969637;28;20021;-86
2021/09/19 10:38:04;;;;;;;0.47;0.20;;;;;;;11.66;75.26;90496.53;5003566;28;20021;-86
2021/09/19 10:40:43;;;;;;;0.10;0.10;;;;;;;11.65;75.16;90499.47;4986546;28;20056;-88
2021/09/19 10:43:15;;;;;;;0.40;0.20;;;;;;;11.75;75.35;90498.19;4991507;28;20026;-86
2021/09/19 10:45:43;;;;;;;0.32;0.15;;;;;;;11.74;74.76;90497.44;4987835;28;20473;-86
2021/09/19 10:48:15;;;;;;;1.77;0.22;;;;;;;11.58;75.90;90496.72;4972913;28;20026;-86
2021/09/19 10:50:42;;;;;;;0.28;0.20;;;;;;;11.43;77.32;90498.31;5004716;28;20022;-86
2021/09/19 10:53:25;;;;;;;1.00;0.20;;;;;;;11.55;75.85;90500.03;4971830;28;20025;-88
2021/09/19 10:55:56;;;;;;;0.22;0.10;;;;;;;11.62;76.06;90500.91;4988445;28;21130;-86
2021/09/19 10:58:30;;;;;;;0.17;0.10;;;;;;;11.47;76.91;90505.09;5023706;28;20033;-87
2021/09/19 11:01:17;;;;;;;0.10;0.10;;;;;;;11.45;76.45;90506.56;4991912;28;20025;-87
2021/09/19 11:03:46;;;;;;;0.47;0.10;;;;;;;11.49;76.43;90504.78;5023618;28;20508;-87
2021/09/19 11:06:21;;;;;;;2.75;0.30;;;;;;;11.55;76.69;90505.25;5026538;28;20026;-87
2021/09/19 11:08:47;;;;;;;0.30;0.20;;;;;;;11.53;75.83;90502.25;5006529;28;20022;-87
2021/09/19 11:11:21;;;;;;;0.15;0.15;;;;;;;11.56;75.71;90506.78;5008517;28;20382;-87
2021/09/19 11:13:53;;;;;;;;;;;;;;;11.42;76.40;90508.00;4988534;28;20022;-87
2021/09/19 11:16:22;;;;;;;0.20;0.10;;;;;;;11.27;76.00;90500.97;5005647;28;19913;-88
2021/09/19 11:18:50;;;;;;;0.47;0.10;;;;;;;11.12;76.80;90504.38;5004170;28;20025;-87
2021/09/19 11:21:37;;;;;;;0.93;0.10;;;;;;;11.29;76.62;90504.00;4987983;28;20029;-87
2021/09/19 11:24:05;;;;;;;2.60;0.20;;;;;;;11.07;76.99;90502.03;5009852;28;20433;-86
2021/09/19 11:26:41;;;;;;;1.77;0.30;;;;;;;11.12;76.97;90510.34;5000484;28;20028;-87
2021/09/19 11:29:14;;;;;;;1.27;0.25;;;;;;;11.15;77.76;90514.13;5000680;28;20417;-87
2021/09/19 11:31:40;;;;;;;0.30;0.20;;;;;;;11.28;76.29;90512.94;5005512;28;20025;-86
2021/09/19 11:34:08;;;;;;;0.10;0.10;;;;;;;11.11;76.26;90508.09;4987599;28;20061;-88
2021/09/19 11:36:35;;;;;;;1.88;0.80;;;;;;;11.01;76.67;90509.38;5004350;28;20374;-87
2021/09/19 11:39:00;;;;;;;0.30;0.17;;;;;;;10.72;78.09;90510.59;5005118;28;20036;-86